sensor_id;sensor_type;location;lat;lon;timestamp;pressure;altitude;pressure_sealevel;temperature;humidity
63819;BME280;49970;54.976;73.248;2023-01-29T00:00:06;100389.78;;;-7.55;89.94
63819;BME280;49970;54.976;73.248;2023-01-29T00:02:38;100400.91;;;-7.53;89.58
63819;BME280;49970;54.976;73.248;2023-01-29T00:05:05;100397.53;;;-7.52;89.13
63819;BME280;49970;54.976;73.248;2023-01-29T00:07:33;100394.09;;;-7.50;89.32
63819;BME280;49970;54.976;73.248;2023-01-29T00:09:59;100404.34;;;-7.54;89.04
63819;BME280;49970;54.976;73.248;2023-01-29T00:12:25;100402.66;;;-7.56;89.99
63819;BME280;49970;54.976;73.248;2023-01-29T00:14:51;100411.22;;;-7.54;89.82
63819;BME280;49970;54.976;73.248;2023-01-29T00:17:18;100406.91;;;-7.54;89.89
63819;BME280;49970;54.976;73.248;2023-01-29T00:19:44;100413.78;;;-7.54;89.77
63819;BME280;49970;54.976;73.248;2023-01-29T00:22:10;100416.34;;;-7.54;89.83
63819;BME280;49970;54.976;73.248;2023-01-29T00:24:36;100424.06;;;-7.53;89.62
63819;BME280;49970;54.976;73.248;2023-01-29T00:27:03;100420.66;;;-7.52;89.84
63819;BME280;49970;54.976;73.248;2023-01-29T00:29:34;100411.19;;;-7.59;90.08
63819;BME280;49970;54.976;73.248;2023-01-29T00:32:00;100423.22;;;-7.50;90.39
63819;BME280;49970;54.976;73.248;2023-01-29T00:34:26;100420.66;;;-7.53;89.44
63819;BME280;49970;54.976;73.248;2023-01-29T00:36:52;100416.38;;;-7.49;89.83
63819;BME280;49970;54.976;73.248;2023-01-29T00:39:30;100416.41;;;-7.46;90.30
63819;BME280;49970;54.976;73.248;2023-01-29T00:42:05;100416.41;;;-7.46;90.23
63819;BME280;49970;54.976;73.248;2023-01-29T00:44:49;100418.09;;;-7.45;90.05
63819;BME280;49970;54.976;73.248;2023-01-29T00:47:24;100424.97;;;-7.44;89.64
63819;BME280;49970;54.976;73.248;2023-01-29T00:49:58;100414.69;;;-7.47;90.06
63819;BME280;49970;54.976;73.248;2023-01-29T00:52:26;100412.94;;;-7.48;90.03
63819;BME280;49970;54.976;73.248;2023-01-29T00:54:55;100415.50;;;-7.48;89.77
63819;BME280;49970;54.976;73.248;2023-01-29T00:57:25;100420.69;;;-7.47;89.98
63819;BME280;49970;54.976;73.248;2023-01-29T00:59:52;100422.38;;;-7.44;90.10
63819;BME280;49970;54.976;73.248;2023-01-29T01:02:19;100422.41;;;-7.41;90.37
63819;BME280;49970;54.976;73.248;2023-01-29T01:05:05;100425.88;;;-7.39;90.06
63819;BME280;49970;54.976;73.248;2023-01-29T01:07:44;100427.56;;;-7.38;89.93
63819;BME280;49970;54.976;73.248;2023-01-29T01:10:18;100425.84;;;-7.36;89.89
63819;BME280;49970;54.976;73.248;2023-01-29T01:13:01;100416.41;;;-7.37;90.05
63819;BME280;49970;54.976;73.248;2023-01-29T01:15:32;100419.84;;;-7.37;90.14
63819;BME280;49970;54.976;73.248;2023-01-29T01:18:00;100426.69;;;-7.36;90.07
63819;BME280;49970;54.976;73.248;2023-01-29T01:20:29;100428.44;;;-7.35;90.19
63819;BME280;49970;54.976;73.248;2023-01-29T01:22:56;100423.31;;;-7.35;90.39
63819;BME280;49970;54.976;73.248;2023-01-29T01:25:24;100420.72;;;-7.38;90.82
63819;BME280;49970;54.976;73.248;2023-01-29T01:27:55;100426.72;;;-7.34;90.27
63819;BME280;49970;54.976;73.248;2023-01-29T01:30:22;100429.31;;;-7.34;90.66
63819;BME280;49970;54.976;73.248;2023-01-29T01:32:58;100412.13;;;-7.43;91.06
63819;BME280;49970;54.976;73.248;2023-01-29T01:35:25;100437.88;;;-7.32;90.83
63819;BME280;49970;54.976;73.248;2023-01-29T01:37:52;100425.00;;;-7.34;90.62
63819;BME280;49970;54.976;73.248;2023-01-29T01:40:23;100437.03;;;-7.28;90.90
63819;BME280;49970;54.976;73.248;2023-01-29T01:42:58;100439.59;;;-7.28;91.06
63819;BME280;49970;54.976;73.248;2023-01-29T01:45:33;100447.31;;;-7.30;90.60
63819;BME280;49970;54.976;73.248;2023-01-29T01:48:04;100449.03;;;-7.30;90.89
63819;BME280;49970;54.976;73.248;2023-01-29T01:50:38;100447.34;;;-7.31;90.82
63819;BME280;49970;54.976;73.248;2023-01-29T01:53:36;100437.88;;;-7.34;90.89
63819;BME280;49970;54.976;73.248;2023-01-29T01:56:07;100455.91;;;-7.28;90.94
63819;BME280;49970;54.976;73.248;2023-01-29T01:58:55;100445.63;;;-7.24;91.15
63819;BME280;49970;54.976;73.248;2023-01-29T02:01:24;100450.78;;;-7.21;90.98
63819;BME280;49970;54.976;73.248;2023-01-29T02:04:01;100451.66;;;-7.21;91.22
63819;BME280;49970;54.976;73.248;2023-01-29T02:06:52;100461.94;;;-7.19;91.49
63819;BME280;49970;54.976;73.248;2023-01-29T02:09:43;100455.94;;;-7.21;91.44
63819;BME280;49970;54.976;73.248;2023-01-29T02:12:13;100455.91;;;-7.26;91.12
63819;BME280;49970;54.976;73.248;2023-01-29T02:14:41;100457.63;;;-7.25;91.24
63819;BME280;49970;54.976;73.248;2023-01-29T02:17:19;100447.31;;;-7.30;91.36
63819;BME280;49970;54.976;73.248;2023-01-29T02:20:09;100464.50;;;-7.19;91.57
63819;BME280;49970;54.976;73.248;2023-01-29T02:28:35;100473.13;;;-7.13;91.49
63819;BME280;49970;54.976;73.248;2023-01-29T02:31:12;100471.38;;;-7.15;91.85
63819;BME280;49970;54.976;73.248;2023-01-29T02:34:06;100482.53;;;-7.18;91.75
63819;BME280;49970;54.976;73.248;2023-01-29T02:36:50;100483.41;;;-7.16;91.24
63819;BME280;49970;54.976;73.248;2023-01-29T02:42:27;100508.31;;;-7.13;91.31
63819;BME280;49970;54.976;73.248;2023-01-29T02:45:05;100501.44;;;-7.14;91.45
63819;BME280;49970;54.976;73.248;2023-01-29T02:50:22;100517.78;;;-7.06;91.89
63819;BME280;49970;54.976;73.248;2023-01-29T02:58:19;100519.50;;;-7.00;91.74
63819;BME280;49970;54.976;73.248;2023-01-29T03:00:47;100522.06;;;-7.00;92.34
63819;BME280;49970;54.976;73.248;2023-01-29T03:03:30;100522.91;;;-6.98;92.05
63819;BME280;49970;54.976;73.248;2023-01-29T03:06:03;100521.22;;;-6.96;92.34
63819;BME280;49970;54.976;73.248;2023-01-29T03:08:45;100518.69;;;-6.93;92.35
63819;BME280;49970;54.976;73.248;2023-01-29T03:11:16;100531.53;;;-6.92;91.96
63819;BME280;49970;54.976;73.248;2023-01-29T03:13:57;100528.09;;;-6.97;92.11
63819;BME280;49970;54.976;73.248;2023-01-29T03:16:33;100526.41;;;-6.93;92.12
63819;BME280;49970;54.976;73.248;2023-01-29T03:19:07;100535.84;;;-6.92;91.96
63819;BME280;49970;54.976;73.248;2023-01-29T03:21:46;100540.16;;;-6.88;92.13
63819;BME280;49970;54.976;73.248;2023-01-29T03:24:36;100542.69;;;-6.91;92.22
63819;BME280;49970;54.976;73.248;2023-01-29T03:27:26;100547.00;;;-6.87;92.51
63819;BME280;49970;54.976;73.248;2023-01-29T03:30:18;100534.97;;;-6.93;92.80
63819;BME280;49970;54.976;73.248;2023-01-29T03:33:34;100549.59;;;-6.84;92.55
63819;BME280;49970;54.976;73.248;2023-01-29T03:36:15;100557.31;;;-6.83;92.19
63819;BME280;49970;54.976;73.248;2023-01-29T03:38:47;100563.34;;;-6.85;91.98
63819;BME280;49970;54.976;73.248;2023-01-29T03:41:27;100559.88;;;-6.86;92.30
63819;BME280;49970;54.976;73.248;2023-01-29T03:44:15;100560.75;;;-6.85;92.71
63819;BME280;49970;54.976;73.248;2023-01-29T03:51:54;100565.91;;;-6.78;92.88
63819;BME280;49970;54.976;73.248;2023-01-29T03:57:41;100575.41;;;-6.67;92.38
63819;BME280;49970;54.976;73.248;2023-01-29T04:00:54;100576.28;;;-6.64;92.81
63819;BME280;49970;54.976;73.248;2023-01-29T04:03:39;100588.31;;;-6.60;92.79
63819;BME280;49970;54.976;73.248;2023-01-29T04:06:16;100581.44;;;-6.58;93.18
63819;BME280;49970;54.976;73.248;2023-01-29T04:09:43;100589.19;;;-6.55;92.59
63819;BME280;49970;54.976;73.248;2023-01-29T04:12:20;100588.34;;;-6.50;92.69
63819;BME280;49970;54.976;73.248;2023-01-29T04:14:50;100585.75;;;-6.52;92.66
63819;BME280;49970;54.976;73.248;2023-01-29T04:17:22;100592.63;;;-6.49;92.67
63819;BME280;49970;54.976;73.248;2023-01-29T04:20:19;100602.94;;;-6.46;92.81
63819;BME280;49970;54.976;73.248;2023-01-29T04:22:48;100601.22;;;-6.44;92.44
63819;BME280;49970;54.976;73.248;2023-01-29T04:25:19;100611.56;;;-6.41;92.79
63819;BME280;49970;54.976;73.248;2023-01-29T04:30:52;100609.84;;;-6.36;92.88
63819;BME280;49970;54.976;73.248;2023-01-29T04:33:44;100614.16;;;-6.34;93.13
63819;BME280;49970;54.976;73.248;2023-01-29T04:39:09;100618.44;;;-6.28;92.66
63819;BME280;49970;54.976;73.248;2023-01-29T04:42:01;100618.44;;;-6.28;92.76
63819;BME280;49970;54.976;73.248;2023-01-29T04:45:15;100615.88;;;-6.28;92.98
63819;BME280;49970;54.976;73.248;2023-01-29T04:48:06;100622.75;;;-6.27;92.96
63819;BME280;49970;54.976;73.248;2023-01-29T04:50:54;100625.31;;;-6.27;92.53
63819;BME280;49970;54.976;73.248;2023-01-29T04:53:34;100627.91;;;-6.24;92.66
63819;BME280;49970;54.976;73.248;2023-01-29T04:56:10;100634.78;;;-6.20;92.66
63819;BME280;49970;54.976;73.248;2023-01-29T04:58:58;100642.56;;;-6.18;92.96
63819;BME280;49970;54.976;73.248;2023-01-29T05:01:29;100622.75;;;-6.24;93.14
63819;BME280;49970;54.976;73.248;2023-01-29T05:04:07;100643.41;;;-6.15;92.72
63819;BME280;49970;54.976;73.248;2023-01-29T05:06:35;100656.31;;;-6.10;93.14
63819;BME280;49970;54.976;73.248;2023-01-29T05:09:03;100658.03;;;-6.08;92.48
63819;BME280;49970;54.976;73.248;2023-01-29T05:11:31;100661.47;;;-6.03;92.89
63819;BME280;49970;54.976;73.248;2023-01-29T05:14:01;100670.06;;;-5.99;93.20
63819;BME280;49970;54.976;73.248;2023-01-29T05:16:37;100666.66;;;-5.99;92.81
63819;BME280;49970;54.976;73.248;2023-01-29T05:19:09;100676.13;;;-6.02;92.76
63819;BME280;49970;54.976;73.248;2023-01-29T05:21:37;100675.22;;;-6.02;92.54
63819;BME280;49970;54.976;73.248;2023-01-29T05:24:18;100678.69;;;-6.00;92.56
63819;BME280;49970;54.976;73.248;2023-01-29T05:26:46;100681.25;;;-5.98;92.45
63819;BME280;49970;54.976;73.248;2023-01-29T05:29:32;100683.84;;;-6.00;92.24
63819;BME280;49970;54.976;73.248;2023-01-29T05:31:58;100690.69;;;-6.02;92.13
63819;BME280;49970;54.976;73.248;2023-01-29T05:34:24;100691.56;;;-6.09;91.78
63819;BME280;49970;54.976;73.248;2023-01-29T05:36:50;100700.16;;;-6.09;91.60
63819;BME280;49970;54.976;73.248;2023-01-29T05:39:18;100708.75;;;-6.08;91.08
63819;BME280;49970;54.976;73.248;2023-01-29T05:41:54;100704.41;;;-6.15;90.38
63819;BME280;49970;54.976;73.248;2023-01-29T05:44:21;100712.16;;;-6.15;89.96
63819;BME280;49970;54.976;73.248;2023-01-29T05:46:57;100708.72;;;-6.16;89.83
63819;BME280;49970;54.976;73.248;2023-01-29T05:49:23;100710.41;;;-6.19;89.55
63819;BME280;49970;54.976;73.248;2023-01-29T05:51:50;100715.56;;;-6.24;89.14
63819;BME280;49970;54.976;73.248;2023-01-29T05:54:16;100712.97;;;-6.24;89.23
63819;BME280;49970;54.976;73.248;2023-01-29T05:56:42;100714.75;;;-6.18;89.34
63819;BME280;49970;54.976;73.248;2023-01-29T05:59:08;100727.63;;;-6.12;89.14
63819;BME280;49970;54.976;73.248;2023-01-29T06:01:35;100717.34;;;-6.08;88.75
63819;BME280;49970;54.976;73.248;2023-01-29T06:04:01;100715.63;;;-6.07;88.77
63819;BME280;49970;54.976;73.248;2023-01-29T06:06:32;100716.47;;;-6.10;88.29
63819;BME280;49970;54.976;73.248;2023-01-29T06:08:59;100721.66;;;-6.05;88.28
63819;BME280;49970;54.976;73.248;2023-01-29T06:11:34;100725.09;;;-6.03;88.33
63819;BME280;49970;54.976;73.248;2023-01-29T06:14:11;100723.38;;;-6.03;87.98
63819;BME280;49970;54.976;73.248;2023-01-29T06:16:42;100726.81;;;-6.00;88.33
63819;BME280;49970;54.976;73.248;2023-01-29T06:19:13;100738.00;;;-6.00;87.74
63819;BME280;49970;54.976;73.248;2023-01-29T06:21:39;100728.53;;;-6.04;87.55
63819;BME280;49970;54.976;73.248;2023-01-29T06:24:05;100734.53;;;-6.04;87.52
63819;BME280;49970;54.976;73.248;2023-01-29T06:26:32;100740.56;;;-6.00;87.81
63819;BME280;49970;54.976;73.248;2023-01-29T06:28:58;100745.75;;;-5.97;87.35
63819;BME280;49970;54.976;73.248;2023-01-29T06:31:24;100744.88;;;-5.91;87.71
63819;BME280;49970;54.976;73.248;2023-01-29T06:33:50;100748.31;;;-5.94;87.53
63819;BME280;49970;54.976;73.248;2023-01-29T06:36:16;100757.75;;;-5.99;86.93
63819;BME280;49970;54.976;73.248;2023-01-29T06:38:43;100755.19;;;-6.00;87.04
63819;BME280;49970;54.976;73.248;2023-01-29T06:41:19;100756.88;;;-6.03;86.88
63819;BME280;49970;54.976;73.248;2023-01-29T06:44:00;100743.13;;;-6.03;86.84
63819;BME280;49970;54.976;73.248;2023-01-29T06:46:36;100753.47;;;-5.94;86.94
63819;BME280;49970;54.976;73.248;2023-01-29T06:49:12;100753.47;;;-5.86;86.85
63819;BME280;49970;54.976;73.248;2023-01-29T06:51:38;100756.94;;;-5.80;86.84
63819;BME280;49970;54.976;73.248;2023-01-29T06:54:05;100768.97;;;-5.74;86.41
63819;BME280;49970;54.976;73.248;2023-01-29T06:56:38;100768.16;;;-5.68;86.84
63819;BME280;49970;54.976;73.248;2023-01-29T06:59:14;100760.38;;;-5.73;85.48
63819;BME280;49970;54.976;73.248;2023-01-29T07:01:50;100765.56;;;-5.67;86.72
63819;BME280;49970;54.976;73.248;2023-01-29T07:04:16;100762.13;;;-5.57;86.48
63819;BME280;49970;54.976;73.248;2023-01-29T07:06:47;100764.75;;;-5.51;85.97
63819;BME280;49970;54.976;73.248;2023-01-29T07:09:14;100761.28;;;-5.43;86.03
63819;BME280;49970;54.976;73.248;2023-01-29T07:11:40;100763.91;;;-5.33;86.38
63819;BME280;49970;54.976;73.248;2023-01-29T07:14:11;100763.91;;;-5.28;85.83
63819;BME280;49970;54.976;73.248;2023-01-29T07:16:37;100766.47;;;-5.28;85.28
63819;BME280;49970;54.976;73.248;2023-01-29T07:19:14;100769.09;;;-5.22;86.06
63819;BME280;49970;54.976;73.248;2023-01-29T07:21:49;100769.91;;;-5.18;85.94
63819;BME280;49970;54.976;73.248;2023-01-29T07:24:15;100778.53;;;-5.19;85.56
63819;BME280;49970;54.976;73.248;2023-01-29T07:26:42;100778.53;;;-5.19;85.11
63819;BME280;49970;54.976;73.248;2023-01-29T07:29:08;100769.94;;;-5.24;85.07
63819;BME280;49970;54.976;73.248;2023-01-29T07:31:34;100774.25;;;-5.27;85.23
63819;BME280;49970;54.976;73.248;2023-01-29T07:34:01;100758.72;;;-5.31;84.90
63819;BME280;49970;54.976;73.248;2023-01-29T07:36:27;100777.66;;;-5.23;84.93
63819;BME280;49970;54.976;73.248;2023-01-29T07:39:04;100775.09;;;-5.20;85.20
63819;BME280;49970;54.976;73.248;2023-01-29T07:41:40;100781.13;;;-5.13;84.98
63819;BME280;49970;54.976;73.248;2023-01-29T07:44:14;100781.97;;;-5.11;84.93
63819;BME280;49970;54.976;73.248;2023-01-29T07:46:41;100781.16;;;-5.06;85.15
63819;BME280;49970;54.976;73.248;2023-01-29T07:49:07;100780.25;;;-5.03;84.78
63819;BME280;49970;54.976;73.248;2023-01-29T07:51:33;100785.44;;;-5.03;85.22
63819;BME280;49970;54.976;73.248;2023-01-29T07:54:05;100782.00;;;-5.13;85.08
63819;BME280;49970;54.976;73.248;2023-01-29T07:56:31;100789.75;;;-5.13;84.85
63819;BME280;49970;54.976;73.248;2023-01-29T07:58:57;100798.34;;;-5.11;85.49
63819;BME280;49970;54.976;73.248;2023-01-29T08:01:23;100791.47;;;-5.18;85.09
63819;BME280;49970;54.976;73.248;2023-01-29T08:04:00;100795.75;;;-5.17;85.44
63819;BME280;49970;54.976;73.248;2023-01-29T08:06:29;100807.81;;;-5.30;85.07
63819;BME280;49970;54.976;73.248;2023-01-29T08:08:56;100813.78;;;-5.44;84.67
63819;BME280;49970;54.976;73.248;2023-01-29T08:11:22;100803.44;;;-5.58;84.21
63819;BME280;49970;54.976;73.248;2023-01-29T08:13:48;100807.69;;;-5.69;84.32
63819;BME280;49970;54.976;73.248;2023-01-29T08:16:14;100804.22;;;-5.78;84.21
63819;BME280;49970;54.976;73.248;2023-01-29T08:18:45;100789.63;;;-5.80;84.33
63819;BME280;49970;54.976;73.248;2023-01-29T08:21:13;100796.50;;;-5.79;85.13
63819;BME280;49970;54.976;73.248;2023-01-29T08:23:40;100800.81;;;-5.73;84.29
63819;BME280;49970;54.976;73.248;2023-01-29T08:26:06;100800.81;;;-5.77;84.68
63819;BME280;49970;54.976;73.248;2023-01-29T08:28:33;100795.66;;;-5.75;84.45
63819;BME280;49970;54.976;73.248;2023-01-29T08:31:00;100798.22;;;-5.69;85.03
63819;BME280;49970;54.976;73.248;2023-01-29T08:33:26;100799.13;;;-5.64;85.12
63819;BME280;49970;54.976;73.248;2023-01-29T08:35:54;100796.56;;;-5.59;85.13
63819;BME280;49970;54.976;73.248;2023-01-29T08:38:20;100794.84;;;-5.59;84.81
63819;BME280;49970;54.976;73.248;2023-01-29T08:40:46;100803.44;;;-5.54;84.49
63819;BME280;49970;54.976;73.248;2023-01-29T08:43:12;100795.72;;;-5.47;84.58
63819;BME280;49970;54.976;73.248;2023-01-29T08:45:40;100802.63;;;-5.42;85.00
63819;BME280;49970;54.976;73.248;2023-01-29T08:48:08;100797.44;;;-5.46;84.32
63819;BME280;49970;54.976;73.248;2023-01-29T08:50:39;100792.25;;;-5.54;85.02
63819;BME280;49970;54.976;73.248;2023-01-29T08:53:11;100796.56;;;-5.48;84.81
63819;BME280;49970;54.976;73.248;2023-01-29T08:55:40;100797.44;;;-5.43;84.90
63819;BME280;49970;54.976;73.248;2023-01-29T08:58:14;100796.63;;;-5.35;84.65
63819;BME280;49970;54.976;73.248;2023-01-29T09:00:41;100797.47;;;-5.28;84.85
63819;BME280;49970;54.976;73.248;2023-01-29T09:03:07;100805.22;;;-5.25;85.01
63819;BME280;49970;54.976;73.248;2023-01-29T09:05:40;100806.94;;;-5.24;84.56
63819;BME280;49970;54.976;73.248;2023-01-29T09:08:08;100813.81;;;-5.23;84.64
63819;BME280;49970;54.976;73.248;2023-01-29T09:10:35;100794.00;;;-5.39;84.12
63819;BME280;49970;54.976;73.248;2023-01-29T09:13:07;100806.91;;;-5.32;84.39
63819;BME280;49970;54.976;73.248;2023-01-29T09:15:33;100807.78;;;-5.31;83.93
63819;BME280;49970;54.976;73.248;2023-01-29T09:18:05;100818.97;;;-5.35;84.00
63819;BME280;49970;54.976;73.248;2023-01-29T09:20:33;100814.63;;;-5.44;84.07
63819;BME280;49970;54.976;73.248;2023-01-29T09:23:07;100816.34;;;-5.49;83.53
63819;BME280;49970;54.976;73.248;2023-01-29T09:25:35;100822.38;;;-5.55;84.23
63819;BME280;49970;54.976;73.248;2023-01-29T09:28:11;100818.06;;;-5.53;84.44
63819;BME280;49970;54.976;73.248;2023-01-29T09:30:43;100821.53;;;-5.51;84.18
63819;BME280;49970;54.976;73.248;2023-01-29T09:33:09;100825.84;;;-5.40;84.56
63819;BME280;49970;54.976;73.248;2023-01-29T09:35:45;100823.28;;;-5.39;84.46
63819;BME280;49970;54.976;73.248;2023-01-29T09:38:12;100818.97;;;-5.41;84.21
63819;BME280;49970;54.976;73.248;2023-01-29T09:48:46;100832.72;;;-5.36;83.55
63819;BME280;49970;54.976;73.248;2023-01-29T09:51:48;100831.00;;;-5.36;84.58
63819;BME280;49970;54.976;73.248;2023-01-29T09:54:34;100831.88;;;-5.35;84.31
63819;BME280;49970;54.976;73.248;2023-01-29T09:57:02;100830.16;;;-5.36;83.45
63819;BME280;49970;54.976;73.248;2023-01-29T09:59:34;100836.16;;;-5.36;84.03
63819;BME280;49970;54.976;73.248;2023-01-29T10:02:09;100839.59;;;-5.35;83.90
63819;BME280;49970;54.976;73.248;2023-01-29T10:05:08;100835.31;;;-5.41;84.11
63819;BME280;49970;54.976;73.248;2023-01-29T10:13:28;100836.09;;;-5.68;83.86
63819;BME280;49970;54.976;73.248;2023-01-29T10:16:29;100844.66;;;-5.77;83.63
63819;BME280;49970;54.976;73.248;2023-01-29T10:19:15;100842.91;;;-5.84;84.04
63819;BME280;49970;54.976;73.248;2023-01-29T10:21:55;100839.44;;;-5.86;84.15
63819;BME280;49970;54.976;73.248;2023-01-29T10:24:34;100837.75;;;-5.88;84.12
63819;BME280;49970;54.976;73.248;2023-01-29T10:27:12;100834.28;;;-5.95;83.94
63819;BME280;49970;54.976;73.248;2023-01-29T10:29:41;100853.22;;;-5.85;83.86
63819;BME280;49970;54.976;73.248;2023-01-29T10:32:14;100850.63;;;-5.88;83.83
63819;BME280;49970;54.976;73.248;2023-01-29T10:37:22;100857.50;;;-5.95;83.83
63819;BME280;49970;54.976;73.248;2023-01-29T10:39:59;100854.94;;;-5.96;83.69
63819;BME280;49970;54.976;73.248;2023-01-29T10:42:45;100859.22;;;-5.94;83.41
63819;BME280;49970;54.976;73.248;2023-01-29T10:51:08;100862.63;;;-5.98;83.66
63819;BME280;49970;54.976;73.248;2023-01-29T10:53:56;100872.97;;;-5.99;83.27
63819;BME280;49970;54.976;73.248;2023-01-29T10:57:10;100873.81;;;-6.00;82.86
63819;BME280;49970;54.976;73.248;2023-01-29T10:59:55;100875.50;;;-6.06;83.70
63819;BME280;49970;54.976;73.248;2023-01-29T11:02:24;100878.06;;;-6.09;83.29
63819;BME280;49970;54.976;73.248;2023-01-29T11:05:01;100875.44;;;-6.15;83.33
63819;BME280;49970;54.976;73.248;2023-01-29T11:07:27;100884.91;;;-6.18;83.23
63819;BME280;49970;54.976;73.248;2023-01-29T11:10:07;100881.41;;;-6.23;83.17
63819;BME280;49970;54.976;73.248;2023-01-29T11:12:36;100891.66;;;-6.31;83.22
63819;BME280;49970;54.976;73.248;2023-01-29T11:15:22;100891.63;;;-6.39;82.85
63819;BME280;49970;54.976;73.248;2023-01-29T11:18:01;100893.28;;;-6.47;82.70
63819;BME280;49970;54.976;73.248;2023-01-29T11:20:29;100900.09;;;-6.54;82.94
63819;BME280;49970;54.976;73.248;2023-01-29T11:23:02;100903.47;;;-6.61;83.02
63819;BME280;49970;54.976;73.248;2023-01-29T11:25:28;100893.91;;;-6.77;82.79
63819;BME280;49970;54.976;73.248;2023-01-29T11:28:09;100906.75;;;-6.79;83.14
63819;BME280;49970;54.976;73.248;2023-01-29T11:30:45;100913.59;;;-6.82;83.40
63819;BME280;49970;54.976;73.248;2023-01-29T11:33:18;100911.81;;;-6.88;82.85
63819;BME280;49970;54.976;73.248;2023-01-29T11:35:47;100921.25;;;-6.88;83.35
63819;BME280;49970;54.976;73.248;2023-01-29T11:38:27;100917.78;;;-6.92;83.35
63819;BME280;49970;54.976;73.248;2023-01-29T11:41:14;100923.75;;;-6.97;83.01
63819;BME280;49970;54.976;73.248;2023-01-29T11:43:43;100924.53;;;-7.03;82.98
63819;BME280;49970;54.976;73.248;2023-01-29T11:46:14;100921.88;;;-7.11;82.90
63819;BME280;49970;54.976;73.248;2023-01-29T11:48:43;100930.41;;;-7.18;82.67
63819;BME280;49970;54.976;73.248;2023-01-29T11:51:24;100925.97;;;-7.28;83.07
63819;BME280;49970;54.976;73.248;2023-01-29T11:54:03;100920.81;;;-7.31;83.51
63819;BME280;49970;54.976;73.248;2023-01-29T11:59:33;100931.03;;;-7.37;83.55
63819;BME280;49970;54.976;73.248;2023-01-29T12:02:58;100941.25;;;-7.43;82.83
63819;BME280;49970;54.976;73.248;2023-01-29T12:05:26;100926.53;;;-7.55;82.86
63819;BME280;49970;54.976;73.248;2023-01-29T12:07:55;100941.06;;;-7.57;83.42
63819;BME280;49970;54.976;73.248;2023-01-29T12:10:37;100950.44;;;-7.61;83.07
63819;BME280;49970;54.976;73.248;2023-01-29T12:15:37;100951.19;;;-7.72;83.05
63819;BME280;49970;54.976;73.248;2023-01-29T12:18:25;100950.22;;;-7.78;83.04
63819;BME280;49970;54.976;73.248;2023-01-29T12:21:02;100953.59;;;-7.83;82.93
63819;BME280;49970;54.976;73.248;2023-01-29T12:23:40;100960.44;;;-7.84;83.06
63819;BME280;49970;54.976;73.248;2023-01-29T12:26:33;100960.44;;;-7.84;84.31
63819;BME280;49970;54.976;73.248;2023-01-29T12:29:12;100959.59;;;-7.83;84.10
63819;BME280;49970;54.976;73.248;2023-01-29T12:32:09;100960.44;;;-7.82;84.23
63819;BME280;49970;54.976;73.248;2023-01-29T12:34:44;100957.88;;;-7.82;84.71
63819;BME280;49970;54.976;73.248;2023-01-29T12:37:39;100969.94;;;-7.80;84.24
63819;BME280;49970;54.976;73.248;2023-01-29T12:40:13;100965.66;;;-7.78;84.62
63819;BME280;49970;54.976;73.248;2023-01-29T12:42:43;100957.94;;;-7.81;84.50
63819;BME280;49970;54.976;73.248;2023-01-29T12:45:17;100920.03;;;-7.94;84.32
63819;BME280;49970;54.976;73.248;2023-01-29T12:48:07;100944.22;;;-7.78;85.01
63819;BME280;49970;54.976;73.248;2023-01-29T12:50:36;100952.00;;;-7.75;85.07
63819;BME280;49970;54.976;73.248;2023-01-29T12:53:32;100958.94;;;-7.68;84.99
63819;BME280;49970;54.976;73.248;2023-01-29T12:56:12;100964.16;;;-7.63;85.03
63819;BME280;49970;54.976;73.248;2023-01-29T12:58:50;100964.97;;;-7.66;85.02
63819;BME280;49970;54.976;73.248;2023-01-29T13:01:36;100963.25;;;-7.68;85.04
63819;BME280;49970;54.976;73.248;2023-01-29T13:04:29;100967.53;;;-7.67;85.85
63819;BME280;49970;54.976;73.248;2023-01-29T13:07:13;100961.53;;;-7.66;85.83
63819;BME280;49970;54.976;73.248;2023-01-29T13:09:50;100965.88;;;-7.64;85.36
63819;BME280;49970;54.976;73.248;2023-01-29T13:12:20;100965.00;;;-7.64;85.01
63819;BME280;49970;54.976;73.248;2023-01-29T13:15:02;100962.50;;;-7.60;85.11
63819;BME280;49970;54.976;73.248;2023-01-29T13:20:11;100957.25;;;-7.66;84.97
63819;BME280;49970;54.976;73.248;2023-01-29T13:22:39;100959.00;;;-7.65;85.41
63819;BME280;49970;54.976;73.248;2023-01-29T13:25:14;100975.34;;;-7.60;85.25
63819;BME280;49970;54.976;73.248;2023-01-29T13:27:41;100968.50;;;-7.59;85.79
63819;BME280;49970;54.976;73.248;2023-01-29T13:30:30;100975.41;;;-7.55;85.28
63819;BME280;49970;54.976;73.248;2023-01-29T13:33:07;100971.19;;;-7.50;85.26
63819;BME280;49970;54.976;73.248;2023-01-29T13:35:39;100972.09;;;-7.46;85.94
63819;BME280;49970;54.976;73.248;2023-01-29T13:38:28;100975.53;;;-7.44;85.67
63819;BME280;49970;54.976;73.248;2023-01-29T13:41:06;100976.44;;;-7.44;85.47
63819;BME280;49970;54.976;73.248;2023-01-29T13:43:38;100982.44;;;-7.43;85.97
63819;BME280;49970;54.976;73.248;2023-01-29T13:46:11;100982.44;;;-7.42;85.46
63819;BME280;49970;54.976;73.248;2023-01-29T13:48:44;100986.72;;;-7.42;85.96
63819;BME280;49970;54.976;73.248;2023-01-29T13:51:22;100992.72;;;-7.43;86.38
63819;BME280;49970;54.976;73.248;2023-01-29T13:54:06;100985.81;;;-7.47;85.44
63819;BME280;49970;54.976;73.248;2023-01-29T13:59:05;100983.19;;;-7.50;85.44
63819;BME280;49970;54.976;73.248;2023-01-29T14:06:51;100986.47;;;-7.61;85.63
63819;BME280;49970;54.976;73.248;2023-01-29T14:17:28;100989.81;;;-7.66;86.39
63819;BME280;49970;54.976;73.248;2023-01-29T14:20:16;100987.28;;;-7.65;86.06
63819;BME280;49970;54.976;73.248;2023-01-29T14:22:56;100993.25;;;-7.66;86.33
63819;BME280;49970;54.976;73.248;2023-01-29T14:25:30;100989.75;;;-7.72;86.90
63819;BME280;49970;54.976;73.248;2023-01-29T14:28:15;100989.88;;;-7.63;86.23
63819;BME280;49970;54.976;73.248;2023-01-29T14:30:47;100996.78;;;-7.59;86.50
63819;BME280;49970;54.976;73.248;2023-01-29T14:35:49;100980.53;;;-7.57;86.51
63819;BME280;49970;54.976;73.248;2023-01-29T14:38:17;100988.28;;;-7.55;86.46